Portada
METAR-TAF:

METAR-TAF

Aeroports :

Canberra, Austràlia

latitud: 35-18S, longitud: 149-11E, altitud: 575 m

Observació

L'informe es va fer fa 1 hora i 5 minuts, a les 22:30 UTC
Vent 11 kt del Sud
Temperatura 9°C
Humitat 66%
Pressió 1021 hPa
Visibilitat 10 km o més

METAR: YSCB 032230Z AUTO 18011KT 9999 // NCD 09/03 Q1021

Hora: 09:35 (23:35 UTC)

Pronòstic

L'informe es va fer fa 3 hores i 21 minuts, a les 20:14 UTC
Pronòstic vàlid del 03 a les 21 UTC al 04 a les 18 UTC
Vent 10 kt del Sud
Visibilitat 10 km o més
Cel ennuvolat a una alçada de 2500 ft
xàfecs de pluja
A partir de les 04 a les 0100 UTC
Vent 16 kt del Sud/Sud-Est
Visibilitat 10 km o més
Núvols disperses a una alçada de 3000 ft

TAF: YSCB 032014Z 0321/0418 17010KT 9999 -SHRA BKN025 FM040100 16016KT 9999 NSW SCT030

Observacions i pronòstics meteorològics de més de 4000 aeroports (METAR i TAF).

Les estacions disponibles són els punts grocs i vermells al mapa.

Posi el ratolí al punt desitjat per veure el nom de l'estació.

Feu clic per veure les observacions i els pronòstics meteorològics.

Per canviar el mapa: feu clic els botons verds amb una creu de color negre per apropar; al botó verd amb un guió per allunyar la imatge; o en les fletxes verdes per a mapes adjacents.


METAR-TAF: